Station History

Weather Underground - logo

Station Historical Data
Daily Summary for January 29, 2018 Units:  English    Metric   Both
« Previous Day
Next Day »
Daily Weekly Monthly Yearly Custom
  High: Low: Average:
Temperature: 65.4 °F 37.2 °F 50 °F
Dew Point: 50.9 °F 35.6 °F 44.1 °F
Humidity: 95 % 57 % 82 %
Wind Speed: 3.5 mph 0.0 mph 0.2 mph
Wind Gust: 3.5 mph - -
Wind:- - West
Pressure: 30.36 in 30.15 in -
Precipitation: 0.00 in    
Historical Graphs
 
 
Tabular Data for January 29, 2018
Time Temperature Dew Point Pressure Wind Wind Speed Wind Gust Humidity Rainfall Rate (Hourly)
00:00 41.0 °F 38.3 °F 30.34 in Calm     90 % 0.00 in
00:05 40.6 °F 37.9 °F 30.35 in Calm     90 % 0.00 in
00:10 40.3 °F 37.9 °F 30.35 in Calm     91 % 0.00 in
00:15 40.2 °F 38.1 °F 30.35 in Calm     92 % 0.00 in
00:20 40.3 °F 38.2 °F 30.35 in SSE 1.2 mph 1.2 mph 92 % 0.00 in
00:25 40.1 °F 38.0 °F 30.35 in Calm     92 % 0.00 in
00:30 40.0 °F 37.9 °F 30.35 in Calm     92 % 0.00 in
00:35 39.9 °F 37.8 °F 30.35 in Calm     92 % 0.00 in
00:40 40.0 °F 37.9 °F 30.35 in Calm     92 % 0.00 in
00:45 39.9 °F 38.0 °F 30.35 in Calm     93 % 0.00 in
00:50 40.0 °F 38.1 °F 30.35 in Calm     93 % 0.00 in
00:55 39.9 °F 38.0 °F 30.35 in Calm     93 % 0.00 in
01:00 39.9 °F 38.0 °F 30.35 in Calm     93 % 0.00 in
01:05 40.0 °F 38.1 °F 30.35 in Calm     93 % 0.00 in
01:10 40.0 °F 38.1 °F 30.35 in Calm     93 % 0.00 in
01:16 39.9 °F 38.0 °F 30.35 in Calm     93 % 0.00 in
01:21 39.9 °F 38.0 °F 30.36 in Calm     93 % 0.00 in
01:26 39.5 °F 37.4 °F 30.36 in Calm     92 % 0.00 in
01:31 39.4 °F 37.5 °F 30.36 in Calm     93 % 0.00 in
01:36 39.6 °F 37.7 °F 30.36 in Calm     93 % 0.00 in
01:41 39.8 °F 38.2 °F 30.36 in Calm     94 % 0.00 in
01:46 39.8 °F 37.9 °F 30.36 in Calm     93 % 0.00 in
01:51 39.7 °F 37.8 °F 30.35 in Calm     93 % 0.00 in
01:56 39.5 °F 37.6 °F 30.35 in Calm     93 % 0.00 in
02:01 39.7 °F 38.1 °F 30.34 in Calm     94 % 0.00 in
02:06 40.2 °F 38.6 °F 30.34 in Calm     94 % 0.00 in
02:11 40.8 °F 39.2 °F 30.33 in Calm     94 % 0.00 in
02:16 41.0 °F 39.4 °F 30.33 in Calm     94 % 0.00 in
02:21 41.5 °F 39.9 °F 30.33 in Calm     94 % 0.00 in
02:26 41.6 °F 40.0 °F 30.32 in Calm     94 % 0.00 in
02:31 41.3 °F 39.4 °F 30.31 in Calm     93 % 0.00 in
02:36 41.0 °F 38.9 °F 30.31 in Calm     92 % 0.00 in
02:41 40.7 °F 38.6 °F 30.31 in Calm     92 % 0.00 in
02:46 40.1 °F 37.7 °F 30.30 in Calm     91 % 0.00 in
02:51 39.7 °F 37.6 °F 30.30 in Calm     92 % 0.00 in
02:56 39.7 °F 37.6 °F 30.30 in Calm     92 % 0.00 in
03:01 39.7 °F 37.8 °F 30.30 in Calm     93 % 0.00 in
03:06 39.6 °F 37.7 °F 30.30 in Calm     93 % 0.00 in
03:11 39.2 °F 37.1 °F 30.29 in Calm     92 % 0.00 in
03:16 39.1 °F 37.2 °F 30.29 in Calm     93 % 0.00 in
03:21 39.0 °F 37.1 °F 30.29 in Calm     93 % 0.00 in
03:26 38.8 °F 36.9 °F 30.29 in Calm     93 % 0.00 in
03:31 38.7 °F 36.9 °F 30.29 in Calm     93 % 0.00 in
03:36 38.6 °F 36.8 °F 30.29 in Calm     93 % 0.00 in
03:41 38.7 °F 37.1 °F 30.29 in Calm     94 % 0.00 in
03:46 38.9 °F 37.3 °F 30.29 in Calm     94 % 0.00 in
03:51 38.9 °F 37.3 °F 30.29 in Calm     94 % 0.00 in
03:56 39.1 °F 37.5 °F 30.29 in Calm     94 % 0.00 in
04:01 39.2 °F 37.6 °F 30.30 in Calm     94 % 0.00 in
04:06 39.3 °F 37.7 °F 30.30 in Calm     94 % 0.00 in
04:11 39.5 °F 37.9 °F 30.30 in Calm     94 % 0.00 in
04:16 39.7 °F 38.1 °F 30.31 in Calm     94 % 0.00 in
04:21 39.5 °F 37.9 °F 30.31 in Calm     94 % 0.00 in
04:26 39.1 °F 37.2 °F 30.31 in Calm     93 % 0.00 in
04:31 38.9 °F 37.0 °F 30.31 in Calm     93 % 0.00 in
04:36 38.8 °F 37.2 °F 30.31 in Calm     94 % 0.00 in
04:41 38.7 °F 37.1 °F 30.32 in Calm     94 % 0.00 in
04:46 38.6 °F 37.0 °F 30.32 in Calm     94 % 0.00 in
04:51 38.5 °F 36.9 °F 30.32 in Calm     94 % 0.00 in
04:56 38.5 °F 36.9 °F 30.32 in Calm     94 % 0.00 in
05:01 38.7 °F 37.1 °F 30.33 in Calm     94 % 0.00 in
05:06 38.8 °F 37.2 °F 30.33 in Calm     94 % 0.00 in
05:12 38.9 °F 37.3 °F 30.33 in Calm     94 % 0.00 in
05:16 38.7 °F 37.1 °F 30.32 in Calm     94 % 0.00 in
05:21 38.7 °F 37.1 °F 30.32 in Calm     94 % 0.00 in
05:26 38.8 °F 37.2 °F 30.32 in Calm     94 % 0.00 in
05:32 38.7 °F 37.1 °F 30.31 in Calm     94 % 0.00 in
05:37 38.5 °F 36.9 °F 30.31 in Calm     94 % 0.00 in
05:42 38.4 °F 36.8 °F 30.31 in Calm     94 % 0.00 in
05:47 38.4 °F 36.8 °F 30.31 in Calm     94 % 0.00 in
05:52 38.1 °F 36.5 °F 30.31 in Calm     94 % 0.00 in
05:57 38.1 °F 36.5 °F 30.31 in Calm     94 % 0.00 in
06:02 38.1 °F 36.5 °F 30.30 in Calm     94 % 0.00 in
06:07 38.3 °F 36.7 °F 30.30 in Calm     94 % 0.00 in
06:12 38.4 °F 37.1 °F 30.30 in Calm     95 % 0.00 in
06:17 38.2 °F 36.6 °F 30.29 in Calm     94 % 0.00 in
06:22 38.1 °F 36.5 °F 30.29 in Calm     94 % 0.00 in
06:27 38.0 °F 36.4 °F 30.29 in Calm     94 % 0.00 in
06:32 37.9 °F 36.3 °F 30.29 in Calm     94 % 0.00 in
06:37 37.8 °F 36.2 °F 30.29 in Calm     94 % 0.00 in
06:42 37.7 °F 36.1 °F 30.29 in Calm     94 % 0.00 in
06:47 37.5 °F 35.9 °F 30.29 in Calm     94 % 0.00 in
06:52 37.4 °F 35.8 °F 30.30 in Calm     94 % 0.00 in
06:57 37.3 °F 35.7 °F 30.30 in Calm     94 % 0.00 in
07:02 37.3 °F 35.7 °F 30.30 in Calm     94 % 0.00 in
07:07 37.2 °F 35.6 °F 30.30 in Calm     94 % 0.00 in
07:12 37.3 °F 35.7 °F 30.30 in Calm     94 % 0.00 in
07:17 37.3 °F 35.7 °F 30.30 in Calm     94 % 0.00 in
07:22 37.3 °F 35.7 °F 30.31 in Calm     94 % 0.00 in
07:27 37.4 °F 35.8 °F 30.31 in Calm     94 % 0.00 in
07:32 37.5 °F 35.9 °F 30.31 in Calm     94 % 0.00 in
07:37 37.8 °F 36.5 °F 30.32 in Calm     95 % 0.00 in
07:42 38.1 °F 36.8 °F 30.32 in Calm     95 % 0.00 in
07:47 38.3 °F 37.0 °F 30.32 in Calm     95 % 0.00 in
07:52 38.7 °F 37.4 °F 30.33 in Calm     95 % 0.00 in
07:57 39.3 °F 38.0 °F 30.33 in Calm     95 % 0.00 in
08:02 39.9 °F 38.6 °F 30.33 in Calm     95 % 0.00 in
08:07 40.5 °F 39.2 °F 30.33 in Calm     95 % 0.00 in
08:12 41.2 °F 39.9 °F 30.33 in ESE 1.0 mph 1.0 mph 95 % 0.00 in
08:17 41.9 °F 40.6 °F 30.32 in ESE 1.2 mph   95 % 0.00 in
08:22 42.6 °F 41.3 °F 30.33 in Calm     95 % 0.00 in
08:27 43.2 °F 41.6 °F 30.32 in Calm     94 % 0.00 in
08:32 43.8 °F 42.2 °F 30.33 in Calm     94 % 0.00 in
08:37 44.3 °F 42.4 °F 30.33 in Calm     93 % 0.00 in
08:42 44.8 °F 42.9 °F 30.33 in Calm     93 % 0.00 in
08:47 45.3 °F 43.4 °F 30.33 in Calm     93 % 0.00 in
08:52 46.1 °F 43.9 °F 30.33 in Calm     92 % 0.00 in
08:57 46.9 °F 44.7 °F 30.34 in SE 1.2 mph   92 % 0.00 in
09:02 47.3 °F 44.8 °F 30.34 in Calm     91 % 0.00 in
09:07 47.5 °F 44.7 °F 30.33 in Calm     90 % 0.00 in
09:12 47.8 °F 45.0 °F 30.33 in Calm     90 % 0.00 in
09:17 48.4 °F 45.6 °F 30.33 in Calm   0.1 mph 90 % 0.00 in
09:22 49.1 °F 45.7 °F 30.33 in SE 2.3 mph 2.3 mph 88 % 0.00 in
09:27 49.7 °F 46.0 °F 30.33 in SE 1.2 mph 1.2 mph 87 % 0.00 in
09:32 50.5 °F 46.8 °F 30.33 in Calm   0.1 mph 87 % 0.00 in
09:37 51.2 °F 46.8 °F 30.33 in Calm   0.1 mph 85 % 0.00 in
09:42 51.7 °F 47.0 °F 30.33 in Calm     84 % 0.00 in
09:43 51.8 °F 46.8 °F 30.33 in Calm     83 % 0.00 in
09:48 52.2 °F 46.9 °F 30.33 in ESE 1.2 mph   82 % 0.00 in
09:53 52.8 °F 46.8 °F 30.33 in Calm     80 % 0.00 in
09:58 53.0 °F 46.7 °F 30.33 in WNW 1.0 mph 1.0 mph 79 % 0.00 in
10:03 53.2 °F 46.5 °F 30.33 in Calm     78 % 0.00 in
10:08 53.8 °F 46.8 °F 30.33 in Calm     77 % 0.00 in
10:13 54.4 °F 47.0 °F 30.33 in Calm     76 % 0.00 in
10:18 55.0 °F 47.2 °F 30.33 in WNW 1.2 mph 1.2 mph 75 % 0.00 in
10:23 55.3 °F 46.8 °F 30.33 in Calm     73 % 0.00 in
10:28 55.5 °F 47.0 °F 30.32 in WSW 1.2 mph   73 % 0.00 in
10:33 55.7 °F 46.8 °F 30.32 in Calm     72 % 0.00 in
10:38 56.2 °F 47.7 °F 30.32 in Calm     73 % 0.00 in
10:43 56.7 °F 47.8 °F 30.31 in Calm     72 % 0.00 in
10:48 57.0 °F 48.1 °F 30.31 in Calm     72 % 0.00 in
10:53 57.4 °F 47.7 °F 30.30 in Calm     70 % 0.00 in
10:58 57.5 °F 47.8 °F 30.30 in Calm     70 % 0.00 in
11:03 57.7 °F 47.6 °F 30.30 in Calm     69 % 0.00 in
11:08 58.0 °F 47.5 °F 30.30 in West 1.2 mph 1.2 mph 68 % 0.00 in
11:13 58.2 °F 47.7 °F 30.30 in Calm     68 % 0.00 in
11:18 58.6 °F 47.7 °F 30.29 in Calm     67 % 0.00 in
11:23 59.1 °F 48.1 °F 30.29 in NW 1.2 mph 1.2 mph 67 % 0.00 in
11:28 59.5 °F 48.1 °F 30.29 in NW 1.0 mph 1.0 mph 66 % 0.00 in
11:33 59.8 °F 48.4 °F 30.29 in Calm     66 % 0.00 in
11:38 60.2 °F 48.8 °F 30.29 in NW 2.3 mph 2.3 mph 66 % 0.00 in
11:43 60.5 °F 48.7 °F 30.29 in NW 1.2 mph 1.2 mph 65 % 0.00 in
11:48 60.7 °F 48.9 °F 30.28 in NW 2.3 mph 2.3 mph 65 % 0.00 in
11:53 61.3 °F 49.4 °F 30.28 in Calm     65 % 0.00 in
11:58 61.3 °F 48.6 °F 30.28 in NW 3.5 mph 3.5 mph 63 % 0.00 in
12:03 61.6 °F 48.4 °F 30.27 in WNW 3.5 mph 3.5 mph 62 % 0.00 in
12:08 61.7 °F 49.0 °F 30.27 in NE 2.3 mph   63 % 0.00 in
12:13 61.9 °F 49.2 °F 30.27 in WNW 2.3 mph 2.3 mph 63 % 0.00 in
12:18 61.9 °F 48.7 °F 30.27 in NW 1.2 mph   62 % 0.00 in
12:23 62.2 °F 49.0 °F 30.26 in West 1.2 mph   62 % 0.00 in
12:28 62.8 °F 49.6 °F 30.26 in NW 1.2 mph 1.2 mph 62 % 0.00 in
12:33 63.3 °F 49.2 °F 30.26 in NW 1.2 mph   60 % 0.00 in
12:38 63.6 °F 49.5 °F 30.25 in WNW 1.2 mph 1.2 mph 60 % 0.00 in
12:43 63.5 °F 48.9 °F 30.25 in West 2.3 mph 2.3 mph 59 % 0.00 in
12:48 63.3 °F 49.2 °F 30.25 in NW 1.2 mph   60 % 0.00 in
12:53 63.7 °F 50.0 °F 30.25 in NNW 1.0 mph 1.0 mph 61 % 0.00 in
12:58 63.8 °F 49.6 °F 30.25 in NNW 1.2 mph 1.2 mph 60 % 0.00 in
13:03 63.8 °F 49.6 °F 30.24 in NW 1.2 mph 1.2 mph 60 % 0.00 in
13:08 64.1 °F 49.9 °F 30.24 in Calm     60 % 0.00 in
13:13 64.0 °F 49.4 °F 30.24 in WNW 2.3 mph 2.3 mph 59 % 0.00 in
13:18 63.9 °F 50.2 °F 30.23 in Calm     61 % 0.00 in
13:23 64.0 °F 49.4 °F 30.23 in WNW 1.2 mph   59 % 0.00 in
13:28 64.2 °F 49.6 °F 30.22 in WNW 2.0 mph 2.0 mph 59 % 0.00 in
13:33 64.2 °F 49.1 °F 30.22 in Calm     58 % 0.00 in
13:38 64.5 °F 49.8 °F 30.22 in Calm     59 % 0.00 in
13:43 64.6 °F 49.9 °F 30.21 in Calm     59 % 0.00 in
13:48 64.8 °F 50.1 °F 30.21 in Calm     59 % 0.00 in
13:53 65.0 °F 49.9 °F 30.21 in Calm     58 % 0.00 in
13:58 65.2 °F 49.6 °F 30.21 in Calm     57 % 0.00 in
14:03 65.1 °F 49.5 °F 30.20 in Calm     57 % 0.00 in
14:08 64.9 °F 49.3 °F 30.20 in Calm     57 % 0.00 in
14:13 65.2 °F 50.0 °F 30.20 in Calm     58 % 0.00 in
14:18 65.4 °F 50.2 °F 30.19 in Calm   0.1 mph 58 % 0.00 in
14:23 65.2 °F 49.6 °F 30.20 in NW 1.2 mph 1.2 mph 57 % 0.00 in
14:28 65.0 °F 49.9 °F 30.19 in NW 2.0 mph 2.0 mph 58 % 0.00 in
14:33 64.7 °F 49.6 °F 30.19 in Calm     58 % 0.00 in
14:39 64.7 °F 49.6 °F 30.19 in Calm     58 % 0.00 in
14:43 64.6 °F 50.4 °F 30.19 in Calm     60 % 0.00 in
14:48 64.7 °F 50.0 °F 30.18 in WNW 1.2 mph   59 % 0.00 in
14:53 64.8 °F 49.7 °F 30.18 in WNW 1.2 mph   58 % 0.00 in
14:58 64.9 °F 49.8 °F 30.18 in WNW 1.2 mph   58 % 0.00 in
15:03 65.0 °F 49.4 °F 30.18 in NNW 1.2 mph 1.2 mph 57 % 0.00 in
15:08 64.9 °F 49.3 °F 30.18 in Calm     57 % 0.00 in
15:13 64.9 °F 50.2 °F 30.18 in Calm     59 % 0.00 in
15:18 64.9 °F 49.8 °F 30.18 in Calm     58 % 0.00 in
15:24 64.9 °F 49.8 °F 30.18 in NW 2.3 mph   58 % 0.00 in
15:29 64.9 °F 49.3 °F 30.18 in Calm     57 % 0.00 in
15:34 65.0 °F 49.9 °F 30.18 in Calm     58 % 0.00 in
15:39 65.0 °F 49.9 °F 30.17 in Calm     58 % 0.00 in
15:44 65.0 °F 49.9 °F 30.17 in Calm     58 % 0.00 in
15:49 65.1 °F 50.0 °F 30.17 in WNW 1.2 mph   58 % 0.00 in
15:54 65.0 °F 49.9 °F 30.17 in WNW 1.2 mph   58 % 0.00 in
15:59 64.8 °F 50.1 °F 30.17 in NW 1.2 mph   59 % 0.00 in
16:04 64.7 °F 50.0 °F 30.16 in Calm     59 % 0.00 in
16:09 64.7 °F 50.0 °F 30.16 in NW 2.3 mph 2.3 mph 59 % 0.00 in
16:14 64.7 °F 50.0 °F 30.17 in Calm     59 % 0.00 in
16:19 64.4 °F 50.2 °F 30.16 in Calm     60 % 0.00 in
16:24 64.1 °F 49.9 °F 30.16 in Calm     60 % 0.00 in
16:29 63.8 °F 50.1 °F 30.16 in Calm     61 % 0.00 in
16:34 63.6 °F 50.3 °F 30.16 in Calm     62 % 0.00 in
16:39 63.4 °F 50.1 °F 30.15 in Calm     62 % 0.00 in
16:44 63.1 °F 50.7 °F 30.15 in Calm     64 % 0.00 in
16:49 62.4 °F 50.9 °F 30.15 in Calm     66 % 0.00 in
16:54 61.7 °F 50.6 °F 30.16 in Calm     67 % 0.00 in
16:59 61.2 °F 50.6 °F 30.16 in Calm     68 % 0.00 in
17:04 60.9 °F 50.3 °F 30.16 in Calm     68 % 0.00 in
17:09 60.5 °F 50.3 °F 30.16 in Calm     69 % 0.00 in
17:14 60.1 °F 50.7 °F 30.16 in Calm     71 % 0.00 in
17:19 59.5 °F 50.5 °F 30.16 in Calm     72 % 0.00 in
17:24 59.0 °F 50.0 °F 30.16 in Calm     72 % 0.00 in
17:29 58.4 °F 49.8 °F 30.17 in Calm     73 % 0.00 in
17:34 58.2 °F 50.0 °F 30.17 in Calm     74 % 0.00 in
17:39 57.9 °F 50.0 °F 30.17 in Calm     75 % 0.00 in
17:44 57.6 °F 49.7 °F 30.17 in Calm     75 % 0.00 in
17:49 57.6 °F 49.7 °F 30.18 in Calm     75 % 0.00 in
17:54 57.5 °F 49.6 °F 30.18 in Calm     75 % 0.00 in
17:59 57.4 °F 49.5 °F 30.18 in Calm     75 % 0.00 in
18:04 57.0 °F 49.5 °F 30.18 in Calm     76 % 0.00 in
18:09 56.5 °F 49.4 °F 30.18 in Calm     77 % 0.00 in
18:14 56.5 °F 49.4 °F 30.17 in Calm     77 % 0.00 in
18:19 56.6 °F 49.5 °F 30.18 in Calm     77 % 0.00 in
18:24 56.7 °F 49.6 °F 30.18 in Calm     77 % 0.00 in
18:29 56.2 °F 49.1 °F 30.18 in Calm     77 % 0.00 in
18:34 55.6 °F 48.8 °F 30.19 in Calm     78 % 0.00 in
18:39 55.1 °F 48.4 °F 30.19 in Calm     78 % 0.00 in
18:44 54.5 °F 48.5 °F 30.19 in Calm     80 % 0.00 in
18:49 53.9 °F 48.2 °F 30.19 in Calm     81 % 0.00 in
18:54 53.5 °F 47.8 °F 30.19 in Calm     81 % 0.00 in
18:59 53.1 °F 47.7 °F 30.19 in Calm     82 % 0.00 in
19:04 52.7 °F 47.7 °F 30.19 in Calm     83 % 0.00 in
19:09 52.3 °F 47.3 °F 30.19 in Calm     83 % 0.00 in
19:14 51.9 °F 47.2 °F 30.19 in Calm     84 % 0.00 in
19:19 51.6 °F 46.9 °F 30.19 in Calm     84 % 0.00 in
19:24 51.7 °F 47.3 °F 30.19 in Calm     85 % 0.00 in
19:29 51.5 °F 46.8 °F 30.19 in Calm     84 % 0.00 in
19:34 51.3 °F 47.3 °F 30.20 in Calm     86 % 0.00 in
19:39 51.1 °F 47.1 °F 30.20 in Calm     86 % 0.00 in
19:44 50.7 °F 46.4 °F 30.20 in Calm     85 % 0.00 in
19:49 50.3 °F 46.3 °F 30.20 in Calm     86 % 0.00 in
19:54 50.0 °F 46.0 °F 30.20 in Calm     86 % 0.00 in
19:59 49.7 °F 46.0 °F 30.20 in Calm     87 % 0.00 in
20:04 49.4 °F 45.7 °F 30.20 in Calm     87 % 0.00 in
20:09 49.1 °F 45.4 °F 30.20 in Calm     87 % 0.00 in
20:14 49.0 °F 45.3 °F 30.20 in Calm     87 % 0.00 in
20:19 49.0 °F 45.6 °F 30.20 in Calm     88 % 0.00 in
20:24 49.6 °F 46.5 °F 30.20 in Calm     89 % 0.00 in
20:29 49.9 °F 46.5 °F 30.20 in Calm     88 % 0.00 in
20:34 49.6 °F 45.9 °F 30.21 in Calm     87 % 0.00 in
20:39 49.3 °F 45.6 °F 30.21 in Calm     87 % 0.00 in
20:44 49.0 °F 45.6 °F 30.21 in Calm     88 % 0.00 in
20:49 49.0 °F 45.9 °F 30.21 in Calm     89 % 0.00 in
20:54 49.1 °F 46.0 °F 30.21 in Calm     89 % 0.00 in
20:59 49.7 °F 46.3 °F 30.21 in Calm     88 % 0.00 in
21:04 49.7 °F 46.0 °F 30.21 in NE 1.2 mph   87 % 0.00 in
21:09 49.5 °F 46.1 °F 30.21 in Calm     88 % 0.00 in
21:14 49.3 °F 45.9 °F 30.21 in Calm     88 % 0.00 in
21:19 49.1 °F 45.7 °F 30.21 in Calm     88 % 0.00 in
21:24 49.1 °F 46.0 °F 30.21 in Calm     89 % 0.00 in
21:29 49.2 °F 46.1 °F 30.21 in Calm     89 % 0.00 in
21:34 49.2 °F 46.1 °F 30.21 in Calm     89 % 0.00 in
21:39 49.1 °F 46.0 °F 30.21 in Calm     89 % 0.00 in
21:44 48.7 °F 45.3 °F 30.21 in Calm     88 % 0.00 in
21:49 48.4 °F 45.0 °F 30.21 in Calm     88 % 0.00 in
21:55 48.3 °F 45.2 °F 30.21 in Calm     89 % 0.00 in
22:00 48.2 °F 45.4 °F 30.21 in Calm     90 % 0.00 in
22:05 48.1 °F 45.3 °F 30.21 in Calm     90 % 0.00 in
22:10 48.1 °F 45.3 °F 30.20 in Calm     90 % 0.00 in
22:15 48.0 °F 45.2 °F 30.20 in Calm     90 % 0.00 in
22:20 48.0 °F 45.2 °F 30.20 in Calm     90 % 0.00 in
22:25 47.9 °F 45.1 °F 30.20 in Calm     90 % 0.00 in
22:30 47.7 °F 44.9 °F 30.20 in Calm     90 % 0.00 in
22:35 47.3 °F 44.2 °F 30.20 in Calm     89 % 0.00 in
22:40 47.1 °F 44.3 °F 30.20 in Calm     90 % 0.00 in
22:45 47.1 °F 44.6 °F 30.20 in Calm     91 % 0.00 in
22:50 47.0 °F 44.5 °F 30.20 in Calm     91 % 0.00 in
22:55 46.8 °F 44.3 °F 30.20 in Calm     91 % 0.00 in
23:00 46.7 °F 44.2 °F 30.20 in Calm     91 % 0.00 in
23:05 46.8 °F 44.6 °F 30.20 in Calm     92 % 0.00 in
23:10 46.8 °F 44.6 °F 30.20 in Calm     92 % 0.00 in
23:15 46.8 °F 44.6 °F 30.20 in Calm     92 % 0.00 in
23:20 46.9 °F 44.7 °F 30.20 in Calm     92 % 0.00 in
23:25 46.8 °F 44.6 °F 30.20 in Calm     92 % 0.00 in
23:30 46.7 °F 44.5 °F 30.20 in Calm     92 % 0.00 in
23:35 46.5 °F 44.0 °F 30.20 in Calm     91 % 0.00 in
23:40 46.3 °F 44.1 °F 30.20 in Calm     92 % 0.00 in
23:45 46.2 °F 44.0 °F 30.20 in Calm     92 % 0.00 in
23:50 46.0 °F 43.8 °F 30.20 in Calm     92 % 0.00 in
23:55 45.9 °F 43.7 °F 30.20 in Calm     92 % 0.00 in
Park Place, Exeter, Tulare County, California, USA
Compliments of Weather Underground - 2.75 mb